createdAt,value
2022-11-10T00:01:12.224Z,97228.34
2022-11-10T00:03:59.478Z,97229.94
2022-11-10T00:06:48.792Z,97231.69
2022-11-10T00:09:37.634Z,97227.81
2022-11-10T00:12:24.933Z,97232.66
2022-11-10T00:15:30.107Z,97233.28
2022-11-10T00:18:17.477Z,97232.34
2022-11-10T00:21:07.095Z,97229.91
2022-11-10T00:23:54.315Z,97229.13
2022-11-10T00:26:42.797Z,97241.78
2022-11-10T00:29:30.099Z,97250.28
2022-11-10T00:32:16.826Z,97263.81
2022-11-10T00:35:03.848Z,97262.38
2022-11-10T00:37:51.891Z,97268.16
2022-11-10T00:40:39.288Z,97267.63
2022-11-10T00:43:28.049Z,97270.38
2022-11-10T00:46:16.111Z,97276.97
2022-11-10T00:49:03.652Z,97280.63
2022-11-10T00:51:50.564Z,97286.91
2022-11-10T00:54:37.514Z,97287.53
2022-11-10T00:57:24.692Z,97286.25
2022-11-10T01:00:13.987Z,97291.41
2022-11-10T01:03:02.549Z,97297.66
2022-11-10T01:05:49.834Z,97299.06
2022-11-10T01:08:37.771Z,97304.69
2022-11-10T01:11:27.725Z,97302.41
2022-11-10T01:14:15.164Z,97299.78
2022-11-10T01:17:03.147Z,97293.84
2022-11-10T01:19:50.202Z,97294.16
2022-11-10T01:22:37.425Z,97303.47
2022-11-10T01:25:24.344Z,97304.28
2022-11-10T01:28:11.709Z,97304.28
2022-11-10T01:30:59.681Z,97316.00
2022-11-10T01:33:48.038Z,97311.34
2022-11-10T01:36:34.985Z,97304.59
2022-11-10T01:39:22.075Z,97309.84
2022-11-10T01:42:09.619Z,97317.38
2022-11-10T01:45:36.004Z,97319.09
2022-11-10T01:48:35.043Z,97320.84
2022-11-10T01:51:33.178Z,97324.19
2022-11-10T01:54:24.952Z,97324.81
2022-11-10T01:57:16.254Z,97331.50
2022-11-10T02:00:04.302Z,97332.13
2022-11-10T02:02:58.995Z,97338.72
2022-11-10T02:05:46.360Z,97334.97
2022-11-10T02:08:35.658Z,97342.25
2022-11-10T02:11:23.844Z,97342.25
2022-11-10T02:14:12.950Z,97353.47
2022-11-10T02:17:00.721Z,97360.53
2022-11-10T02:19:47.902Z,97362.06
2022-11-10T02:22:35.952Z,97370.44
2022-11-10T02:25:26.576Z,97369.28
2022-11-10T02:28:13.915Z,97371.34
2022-11-10T02:31:00.992Z,97369.53
2022-11-10T02:33:47.984Z,97377.97
2022-11-10T02:36:35.109Z,97373.88
2022-11-10T02:39:23.319Z,97380.25
2022-11-10T02:42:10.499Z,97364.78
2022-11-10T02:44:58.628Z,97373.31
2022-11-10T02:47:45.696Z,97377.16
2022-11-10T02:50:32.629Z,97380.66
2022-11-10T02:53:19.719Z,97382.97
2022-11-10T02:56:09.044Z,97397.38
2022-11-10T02:58:55.857Z,97401.69
2022-11-10T03:01:42.886Z,97410.72
2022-11-10T03:04:29.927Z,97411.50
2022-11-10T03:07:17.246Z,97415.41
2022-11-10T03:10:05.194Z,97403.81
2022-11-10T03:12:55.409Z,97416.44
2022-11-10T03:15:42.115Z,97422.50
2022-11-10T03:18:29.544Z,97420.72
2022-11-10T03:21:16.357Z,97427.78
2022-11-10T03:24:03.563Z,97429.41
2022-11-10T03:26:50.367Z,97432.25
2022-11-10T03:29:38.969Z,97441.03
2022-11-10T03:32:26.434Z,97442.63
2022-11-10T03:35:13.592Z,97444.84
2022-11-10T03:38:00.740Z,97449.63
2022-11-10T03:41:18.356Z,97459.50
2022-11-10T03:43:54.903Z,97465.97
2022-11-10T03:46:43.691Z,97466.06
2022-11-10T03:49:31.095Z,97467.41
2022-11-10T03:52:18.439Z,97469.81
2022-11-10T03:55:05.689Z,97483.16
2022-11-10T03:57:52.829Z,97486.50
2022-11-10T04:00:40.059Z,97486.78
2022-11-10T04:03:28.143Z,97485.16
2022-11-10T04:06:32.842Z,97490.63
2022-11-10T04:09:20.160Z,97497.47
2022-11-10T04:12:25.271Z,97496.97
2022-11-10T04:15:31.072Z,97503.03
2022-11-10T04:18:29.463Z,97509.09
2022-11-10T04:21:17.599Z,97519.06
2022-11-10T04:24:05.244Z,97513.78
2022-11-10T04:26:52.065Z,97515.06
2022-11-10T04:29:39.074Z,97515.47
2022-11-10T04:32:26.183Z,97514.00
2022-11-10T04:35:13.124Z,97525.56
2022-11-10T04:38:01.491Z,97526.34
2022-11-10T04:40:48.604Z,97522.44
2022-11-10T04:43:35.671Z,97524.03
2022-11-10T04:46:26.660Z,97534.31
2022-11-10T04:49:14.250Z,97532.31
2022-11-10T04:52:01.295Z,97535.78
2022-11-10T04:54:49.385Z,97546.28
2022-11-10T04:57:36.287Z,97558.81
2022-11-10T05:00:23.516Z,97567.91
2022-11-10T05:03:12.991Z,97572.88
2022-11-10T05:06:00.178Z,97572.19
2022-11-10T05:08:47.718Z,97572.88
2022-11-10T05:11:36.082Z,97569.72
2022-11-10T05:14:23.111Z,97569.19
2022-11-10T05:17:11.041Z,97577.72
2022-11-10T05:19:57.708Z,97579.19
2022-11-10T05:23:07.198Z,97585.47
2022-11-10T05:25:54.188Z,97593.25
2022-11-10T05:28:43.963Z,97595.69
2022-11-10T05:31:31.351Z,97597.34
2022-11-10T05:34:18.281Z,97602.44
2022-11-10T05:37:05.319Z,97606.41
2022-11-10T05:39:52.359Z,97613.28
2022-11-10T05:42:44.912Z,97617.19
2022-11-10T05:45:33.955Z,97630.00
2022-11-10T05:48:21.451Z,97627.34
2022-11-10T05:51:08.521Z,97637.41
2022-11-10T05:53:56.189Z,97634.72
2022-11-10T05:56:42.992Z,97633.63
2022-11-10T05:59:30.016Z,97646.09
2022-11-10T06:02:18.525Z,97648.25
2022-11-10T06:05:06.200Z,97648.00
2022-11-10T06:07:53.500Z,97656.41
2022-11-10T06:10:41.400Z,97664.25
2022-11-10T06:13:29.347Z,97665.88
2022-11-10T06:16:16.222Z,97679.69
2022-11-10T06:19:04.179Z,97684.81
2022-11-10T06:21:55.412Z,97698.34
2022-11-10T06:24:46.755Z,97698.34
2022-11-10T06:27:34.034Z,97709.97
2022-11-10T06:30:21.986Z,97727.59
2022-11-10T06:33:09.941Z,97729.53
2022-11-10T06:35:58.353Z,97735.47
2022-11-10T06:38:46.168Z,97742.00
2022-11-10T06:41:33.599Z,97745.25
2022-11-10T06:44:20.772Z,97745.31
2022-11-10T06:47:07.846Z,97761.56
2022-11-10T06:49:55.155Z,97767.53
2022-11-10T06:52:43.137Z,97771.88
2022-11-10T06:55:30.524Z,97775.66
2022-11-10T06:58:17.513Z,97784.63
2022-11-10T07:01:04.595Z,97785.19
2022-11-10T07:04:17.576Z,97793.84
2022-11-10T07:06:58.298Z,97800.66
2022-11-10T07:09:46.682Z,97799.53
2022-11-10T07:12:33.749Z,97806.56
2022-11-10T07:15:20.580Z,97808.13
2022-11-10T07:18:07.604Z,97815.63
2022-11-10T07:20:54.678Z,97813.91
2022-11-10T07:23:42.073Z,97819.50
2022-11-10T07:26:30.245Z,97825.88
2022-11-10T07:29:16.858Z,97839.09
2022-11-10T07:32:03.929Z,97844.66
2022-11-10T07:34:50.845Z,97841.56
2022-11-10T07:37:38.062Z,97847.25
2022-11-10T07:40:25.398Z,97850.94
2022-11-10T07:43:14.319Z,97855.72
2022-11-10T07:46:01.410Z,97857.16
2022-11-10T07:48:48.609Z,97864.38
2022-11-10T07:51:36.042Z,97872.34
2022-11-10T07:54:23.125Z,97880.44
2022-11-10T07:57:10.369Z,97885.44
2022-11-10T07:59:59.034Z,97889.41
2022-11-10T08:02:46.027Z,97899.19
2022-11-10T08:05:34.074Z,97893.09
2022-11-10T08:08:21.517Z,97890.91
2022-11-10T08:11:08.808Z,97896.91
2022-11-10T08:13:55.413Z,97895.94
2022-11-10T08:16:43.860Z,97902.22
2022-11-10T08:19:31.085Z,97897.88
2022-11-10T08:22:17.677Z,97902.47
2022-11-10T08:25:05.363Z,97896.69
2022-11-10T08:27:59.929Z,97908.66
2022-11-10T08:30:49.737Z,97909.41
2022-11-10T08:33:38.187Z,97926.03
2022-11-10T08:36:25.175Z,97927.63
2022-11-10T08:39:13.339Z,97934.94
2022-11-10T08:42:06.343Z,97936.28
2022-11-10T08:44:53.620Z,97940.78
2022-11-10T08:47:40.553Z,97940.78
2022-11-10T08:50:29.553Z,97952.19
2022-11-10T08:53:18.005Z,97949.41
2022-11-10T08:56:05.486Z,97948.53
2022-11-10T08:58:54.153Z,97948.84
2022-11-10T09:01:41.350Z,97960.50
2022-11-10T09:04:28.303Z,97965.97
2022-11-10T09:07:16.375Z,97970.94
2022-11-10T09:10:08.057Z,97980.47
2022-11-10T09:12:55.523Z,97968.13
2022-11-10T09:15:44.119Z,97971.13
2022-11-10T09:18:31.372Z,97979.41
2022-11-10T09:21:18.562Z,97983.16
2022-11-10T09:24:08.251Z,97992.91
2022-11-10T09:26:55.070Z,97996.44
2022-11-10T09:29:42.329Z,98000.22
2022-11-10T09:32:29.533Z,98005.97
2022-11-10T09:35:16.784Z,98003.75
2022-11-10T09:38:04.139Z,98006.66
2022-11-10T09:41:02.802Z,98014.19
2022-11-10T09:44:01.771Z,98020.19
2022-11-10T09:46:54.628Z,98022.16
2022-11-10T09:49:50.664Z,98022.69
2022-11-10T09:52:40.278Z,98023.09
2022-11-10T09:55:38.624Z,98030.38
2022-11-10T09:58:35.527Z,98028.53
2022-11-10T10:01:33.925Z,98038.09
2022-11-10T10:04:37.831Z,98035.00
2022-11-10T10:07:31.662Z,98033.50
2022-11-10T10:10:33.655Z,98033.28
2022-11-10T10:13:39.301Z,98044.47
2022-11-10T10:16:38.594Z,98050.94
2022-11-10T10:19:50.128Z,98055.72
2022-11-10T10:22:53.998Z,98059.34
2022-11-10T10:25:44.519Z,98064.84
2022-11-10T10:28:39.870Z,98059.50
2022-11-10T10:31:33.844Z,98063.09
2022-11-10T10:34:25.007Z,98064.28
2022-11-10T10:37:26.035Z,98070.06
2022-11-10T10:40:18.241Z,98074.94
2022-11-10T10:43:05.887Z,98066.69
2022-11-10T10:46:10.219Z,98060.41
2022-11-10T10:49:30.013Z,98063.06
2022-11-10T10:52:24.643Z,98058.13
2022-11-10T10:55:14.497Z,98067.38
2022-11-10T10:58:03.706Z,98066.75
2022-11-10T11:00:55.501Z,98074.97
2022-11-10T11:03:46.758Z,98074.53
2022-11-10T11:06:35.098Z,98066.28
2022-11-10T11:09:26.279Z,98067.47
2022-11-10T11:12:15.620Z,98068.28
2022-11-10T11:15:25.748Z,98052.16
2022-11-10T11:18:20.638Z,98054.88
2022-11-10T11:21:26.809Z,98056.75
2022-11-10T11:24:30.855Z,98052.25
2022-11-10T11:27:25.156Z,98061.84
2022-11-10T11:30:23.207Z,98053.44
2022-11-10T11:33:33.706Z,98057.97
2022-11-10T11:36:35.662Z,98056.72
2022-11-10T11:39:34.652Z,98058.19
2022-11-10T11:42:42.633Z,98056.91
2022-11-10T11:45:46.711Z,98074.28
2022-11-10T11:48:56.004Z,98066.22
2022-11-10T11:51:52.218Z,98075.34
2022-11-10T11:54:55.974Z,98068.50
2022-11-10T11:58:01.133Z,98075.91
2022-11-10T12:01:08.747Z,98065.84
2022-11-10T12:04:22.563Z,98064.00
2022-11-10T12:07:40.323Z,98066.00
2022-11-10T12:10:46.139Z,98074.00
2022-11-10T12:13:45.260Z,98059.16
2022-11-10T12:16:34.797Z,98066.94
2022-11-10T12:19:32.756Z,98064.97
2022-11-10T12:22:31.502Z,98070.38
2022-11-10T12:25:29.332Z,98054.84
2022-11-10T12:28:21.884Z,98043.53
2022-11-10T12:31:16.843Z,98047.72
2022-11-10T12:34:11.481Z,98053.88
2022-11-10T12:37:01.892Z,98053.84
2022-11-10T12:39:57.549Z,98049.28
2022-11-10T12:42:51.269Z,98049.28
2022-11-10T12:45:42.497Z,98051.53
2022-11-10T12:48:37.395Z,98049.25
2022-11-10T12:51:31.071Z,98050.00
2022-11-10T12:54:21.442Z,98054.16
2022-11-10T12:57:15.636Z,98063.25
2022-11-10T13:00:06.919Z,98069.13
2022-11-10T13:02:55.604Z,98078.22
2022-11-10T13:05:45.444Z,98067.78
2022-11-10T13:08:46.898Z,98074.84
2022-11-10T13:11:36.710Z,98074.03
2022-11-10T13:14:29.421Z,98067.44
2022-11-10T13:17:55.575Z,98069.50
2022-11-10T13:21:04.283Z,98071.03
2022-11-10T13:24:22.844Z,98054.16
2022-11-10T13:27:14.241Z,98054.72
2022-11-10T13:30:02.840Z,98061.31
2022-11-10T13:32:49.952Z,98047.75
2022-11-10T13:35:55.690Z,98059.56
2022-11-10T13:38:45.969Z,98062.56
2022-11-10T13:41:35.677Z,98060.81
2022-11-10T13:44:28.947Z,98071.81
2022-11-10T13:47:51.191Z,98075.28
2022-11-10T13:50:51.742Z,98081.97
2022-11-10T13:53:56.639Z,98078.47
2022-11-10T13:57:11.704Z,98097.19
2022-11-10T14:00:01.950Z,98096.41
2022-11-10T14:02:56.212Z,98086.94
2022-11-10T14:06:10.787Z,98101.34
2022-11-10T14:09:05.301Z,98100.03
2022-11-10T14:12:00.191Z,98098.03
2022-11-10T14:14:56.154Z,98104.25
2022-11-10T14:17:47.788Z,98097.72
2022-11-10T14:20:44.647Z,98102.19
2022-11-10T14:23:43.550Z,98101.44
2022-11-10T14:26:36.240Z,98105.88
2022-11-10T14:29:33.149Z,98106.75
2022-11-10T14:32:24.846Z,98108.91
2022-11-10T14:35:21.787Z,98100.91
2022-11-10T14:38:20.839Z,98101.75
2022-11-10T14:41:16.281Z,98107.56
2022-11-10T14:44:05.801Z,98103.03
2022-11-10T14:46:53.658Z,98098.00
2022-11-10T14:49:40.718Z,98103.78
2022-11-10T14:52:28.340Z,98100.06
2022-11-10T14:55:20.600Z,98100.16
2022-11-10T14:58:14.918Z,98107.13
2022-11-10T15:01:03.713Z,98115.16
2022-11-10T15:03:51.093Z,98112.63
2022-11-10T15:06:43.083Z,98122.84
2022-11-10T15:09:34.173Z,98126.91
2022-11-10T15:12:28.314Z,98126.97
2022-11-10T15:15:23.282Z,98129.63
2022-11-10T15:18:27.078Z,98126.16
2022-11-10T15:21:16.183Z,98136.22
2022-11-10T15:24:06.653Z,98147.06
2022-11-10T15:26:53.738Z,98147.03
2022-11-10T15:29:42.034Z,98157.81
2022-11-10T15:32:36.040Z,98154.09
2022-11-10T15:35:29.798Z,98164.66
2022-11-10T15:38:32.924Z,98162.88
2022-11-10T15:41:27.658Z,98162.94
2022-11-10T15:44:20.757Z,98164.34
2022-11-10T15:47:13.496Z,98169.63
2022-11-10T15:50:02.177Z,98177.91
2022-11-10T15:52:49.568Z,98183.97
2022-11-10T15:55:36.523Z,98180.19
2022-11-10T15:58:24.631Z,98187.28
2022-11-10T16:01:13.492Z,98184.88
2022-11-10T16:04:01.651Z,98189.84
2022-11-10T16:06:48.874Z,98187.44
2022-11-10T16:09:36.050Z,98193.44
2022-11-10T16:12:24.433Z,98195.72
2022-11-10T16:15:18.186Z,98207.47
2022-11-10T16:18:09.836Z,98212.41
2022-11-10T16:20:58.344Z,98207.25
2022-11-10T16:23:46.209Z,98208.06
2022-11-10T16:26:35.420Z,98207.25
2022-11-10T16:29:22.618Z,98215.69
2022-11-10T16:32:12.155Z,98224.13
2022-11-10T16:34:59.284Z,98220.88
2022-11-10T16:37:47.860Z,98218.69
2022-11-10T16:40:34.987Z,98233.09
2022-11-10T16:43:22.950Z,98236.38
2022-11-10T16:46:21.955Z,98233.94
2022-11-10T16:49:22.827Z,98237.75
2022-11-10T16:52:16.235Z,98241.81
2022-11-10T16:55:04.722Z,98239.34
2022-11-10T16:57:51.334Z,98250.47
2022-11-10T17:00:40.196Z,98246.06
2022-11-10T17:03:34.215Z,98256.09
2022-11-10T17:06:24.523Z,98261.00
2022-11-10T17:09:18.246Z,98260.75
2022-11-10T17:12:06.853Z,98258.03
2022-11-10T17:14:53.803Z,98263.22
2022-11-10T17:17:42.513Z,98260.78
2022-11-10T17:20:37.742Z,98254.53
2022-11-10T17:23:27.107Z,98254.53
2022-11-10T17:26:17.833Z,98248.28
2022-11-10T17:29:06.204Z,98246.09
2022-11-10T17:31:54.121Z,98251.53
2022-11-10T17:34:41.332Z,98251.22
2022-11-10T17:37:28.088Z,98257.44
2022-11-10T17:40:21.866Z,98256.63
2022-11-10T17:43:12.973Z,98266.97
2022-11-10T17:46:01.710Z,98272.41
2022-11-10T17:48:49.663Z,98279.47
2022-11-10T17:51:38.223Z,98280.56
2022-11-10T17:54:25.940Z,98291.97
2022-11-10T17:57:12.927Z,98299.31
2022-11-10T17:59:59.963Z,98298.78
2022-11-10T18:02:54.951Z,98301.13
2022-11-10T18:05:42.449Z,98298.75
2022-11-10T18:08:29.653Z,98315.56
2022-11-10T18:11:18.837Z,98308.72
2022-11-10T18:14:06.055Z,98305.19
2022-11-10T18:16:53.000Z,98307.38
2022-11-10T18:19:41.154Z,98301.84
2022-11-10T18:22:28.080Z,98299.09
2022-11-10T18:25:15.065Z,98291.47
2022-11-10T18:28:01.809Z,98286.81
2022-11-10T18:30:49.007Z,98285.69
2022-11-10T18:33:36.971Z,98282.69
2022-11-10T18:36:25.793Z,98284.78
2022-11-10T18:39:13.052Z,98283.22
2022-11-10T18:42:00.091Z,98289.97
2022-11-10T18:44:47.182Z,98289.69
2022-11-10T18:47:34.208Z,98292.16
2022-11-10T18:50:21.688Z,98301.84
2022-11-10T18:53:09.619Z,98303.41
2022-11-10T18:55:57.165Z,98309.19
2022-11-10T18:58:44.152Z,98302.09
2022-11-10T19:01:31.542Z,98306.34
2022-11-10T19:04:19.389Z,98296.59
2022-11-10T19:07:06.335Z,98299.84
2022-11-10T19:09:55.137Z,98303.19
2022-11-10T19:12:42.107Z,98311.31
2022-11-10T19:15:29.367Z,98311.44
2022-11-10T19:18:16.650Z,98314.66
2022-11-10T19:21:06.554Z,98319.22
2022-11-10T19:23:56.189Z,98309.13
2022-11-10T19:26:44.765Z,98320.91
2022-11-10T19:29:31.762Z,98327.22
2022-11-10T19:32:23.634Z,98344.47
2022-11-10T19:35:13.522Z,98344.88
2022-11-10T19:38:00.734Z,98352.44
2022-11-10T19:40:47.940Z,98346.03
2022-11-10T19:43:36.508Z,98353.16
2022-11-10T19:46:25.626Z,98357.53
2022-11-10T19:49:12.947Z,98356.84
2022-11-10T19:52:00.009Z,98354.81
2022-11-10T19:54:46.682Z,98356.56
2022-11-10T19:57:33.533Z,98350.91
2022-11-10T20:00:22.314Z,98357.72
2022-11-10T20:03:11.462Z,98361.31
2022-11-10T20:06:04.223Z,98370.22
2022-11-10T20:08:51.578Z,98377.22
2022-11-10T20:11:38.505Z,98370.38
2022-11-10T20:14:27.195Z,98382.72
2022-11-10T20:17:15.547Z,98381.28
2022-11-10T20:20:02.667Z,98382.88
2022-11-10T20:22:49.579Z,98387.59
2022-11-10T20:25:37.215Z,98400.44
2022-11-10T20:28:24.258Z,98409.69
2022-11-10T20:31:13.855Z,98411.69
2022-11-10T20:34:02.148Z,98401.63
2022-11-10T20:36:49.434Z,98399.84
2022-11-10T20:39:36.530Z,98401.50
2022-11-10T20:42:23.569Z,98402.22
2022-11-10T20:45:11.452Z,98393.66
2022-11-10T20:47:59.745Z,98395.56
2022-11-10T20:50:48.108Z,98394.56
2022-11-10T20:53:35.215Z,98404.03
2022-11-10T20:56:26.796Z,98398.94
2022-11-10T20:59:16.700Z,98399.00
2022-11-10T21:02:03.933Z,98395.47
2022-11-10T21:04:51.248Z,98392.13
2022-11-10T21:07:39.288Z,98386.22
2022-11-10T21:10:26.205Z,98388.03
2022-11-10T21:13:12.900Z,98394.00
2022-11-10T21:16:02.757Z,98391.09
2022-11-10T21:18:50.015Z,98400.25
2022-11-10T21:21:36.976Z,98400.88
2022-11-10T21:24:25.686Z,98401.66
2022-11-10T21:27:13.207Z,98395.69
2022-11-10T21:30:00.192Z,98400.69
2022-11-10T21:32:47.393Z,98400.53
2022-11-10T21:35:38.314Z,98399.72
2022-11-10T21:38:25.333Z,98395.38
2022-11-10T21:41:14.284Z,98394.31
2022-11-10T21:44:01.274Z,98401.66
2022-11-10T21:46:48.075Z,98395.75
2022-11-10T21:49:35.437Z,98403.22
2022-11-10T21:52:22.455Z,98408.97
2022-11-10T21:55:10.976Z,98405.19
2022-11-10T21:58:00.602Z,98402.66
2022-11-10T22:00:48.083Z,98400.19
2022-11-10T22:03:35.964Z,98413.38
2022-11-10T22:06:23.443Z,98410.94
2022-11-10T22:09:10.728Z,98415.19
2022-11-10T22:12:15.354Z,98409.19
2022-11-10T22:15:21.475Z,98400.28
2022-11-10T22:18:31.917Z,98404.28
2022-11-10T22:21:18.761Z,98408.22
2022-11-10T22:24:24.584Z,98416.81
2022-11-10T22:27:11.667Z,98416.97
2022-11-10T22:29:58.789Z,98412.94
2022-11-10T22:32:46.711Z,98402.97
2022-11-10T22:35:45.654Z,98410.84
2022-11-10T22:38:35.077Z,98411.78
2022-11-10T22:41:40.006Z,98421.28
2022-11-10T22:44:27.224Z,98423.41
2022-11-10T22:47:14.191Z,98423.19
2022-11-10T22:50:02.592Z,98426.06
2022-11-10T22:52:49.605Z,98427.94
2022-11-10T22:55:36.681Z,98418.19
2022-11-10T22:58:23.695Z,98425.06
2022-11-10T23:01:13.008Z,98420.72
2022-11-10T23:04:00.749Z,98417.03
2022-11-10T23:06:48.814Z,98414.28
2022-11-10T23:09:36.148Z,98415.03
2022-11-10T23:12:23.094Z,98402.09
2022-11-10T23:15:10.935Z,98406.94
2022-11-10T23:18:01.182Z,98403.97
2022-11-10T23:20:58.721Z,98394.28
2022-11-10T23:23:48.849Z,98392.16
2022-11-10T23:26:35.923Z,98402.16
2022-11-10T23:29:23.394Z,98400.19
2022-11-10T23:32:10.621Z,98390.09
2022-11-10T23:34:57.647Z,98393.16
2022-11-10T23:37:44.410Z,98399.53
2022-11-10T23:40:32.622Z,98407.81
2022-11-10T23:43:19.593Z,98410.19
2022-11-10T23:46:08.144Z,98399.66
2022-11-10T23:48:55.643Z,98407.25
2022-11-10T23:51:42.646Z,98403.78
2022-11-10T23:54:29.651Z,98411.56
2022-11-10T23:57:18.184Z,98414.00
